Flight Track Log - Related Links

Times and Time Zones

All times are in EST time to prevent confusion due to time zone crossing. See the CCA140 flight status page for this flight to view local times or setup timezone preferences in your user account.

Time Position Orientation Groundspeed Altitude Reporting Facility
EST Latitude Longitude Course Direction KTS MPH feet Rate Location/Type
11:14PM 37.1991 126.2014 216° Southwest  Level Estimated
11:15PM 37.1315 126.1394 216° Southwest  Level Estimated
11:16PM 37.0639 126.0775 216° Southwest  Level Estimated
11:17PM 36.9963 126.0157 216° Southwest  Level Estimated
11:18PM 36.9286 125.9540 216° Southwest  Level Estimated
11:19PM 36.8609 125.8925 216° Southwest  Level Estimated
11:20PM 36.7931 125.8310 216° Southwest  Level Estimated
11:21PM 36.7253 125.7697 216° Southwest  Level Estimated
11:22PM 36.6576 125.7084 216° Southwest  Level Estimated
11:23PM 36.5897 125.6473 216° Southwest  Level Estimated
11:24PM 36.5219 125.5863 216° Southwest  Level Estimated
11:25PM 36.4540 125.5253 216° Southwest  Level Estimated
11:26PM 36.3860 125.4645 216° Southwest  Level Estimated
11:27PM 36.3181 125.4038 216° Southwest  Level Estimated
11:28PM 36.2501 125.3432 216° Southwest  Level Estimated
11:29PM 36.1821 125.2827 216° Southwest  Level Estimated
11:30PM 36.1140 125.2224 216° Southwest  Level Estimated
11:31PM 36.0459 125.1621 216° Southwest  Level Estimated
11:32PM 35.9778 125.1019 216° Southwest  Level Estimated
11:33PM 35.9097 125.0418 216° Southwest  Level Estimated
11:34PM 35.8415 124.9818 216° Southwest  Level Estimated
11:35PM 35.7733 124.9220 215° Southwest  Level Estimated
11:36PM 35.7051 124.8622 215° Southwest  Level Estimated
11:37PM 35.6368 124.8025 215° Southwest  Level Estimated
11:38PM 35.5685 124.7430 215° Southwest  Level Estimated
11:39PM 35.5002 124.6835 215° Southwest  Level Estimated
11:40PM 35.4319 124.6242 215° Southwest  Level Estimated
11:41PM 35.3635 124.5649 215° Southwest  Level Estimated
11:42PM 35.2951 124.5057 215° Southwest  Level Estimated
11:43PM 35.2267 124.4467 215° Southwest  Level Estimated
11:44PM 35.1582 124.3877 215° Southwest  Level Estimated
11:45PM 35.0897 124.3289 215° Southwest  Level Estimated
11:46PM 35.0212 124.2701 215° Southwest  Level Estimated
11:47PM 34.9526 124.2114 215° Southwest  Level Estimated
11:48PM 34.8841 124.1529 215° Southwest  Level Estimated
11:49PM 34.8155 124.0944 215° Southwest  Level Estimated
11:50PM 34.7468 124.0360 215° Southwest  Level Estimated
11:51PM 34.6782 123.9778 215° Southwest  Level Estimated
11:52PM 34.6095 123.9196 215° Southwest  Level Estimated
11:53PM 34.5408 123.8615 215° Southwest  Level Estimated
11:54PM 34.4720 123.8035 215° Southwest  Level Estimated
11:55PM 34.4033 123.7456 215° Southwest  Level Estimated
11:56PM 34.3345 123.6878 215° Southwest  Level Estimated
11:57PM 34.2657 123.6301 215° Southwest  Level Estimated
11:58PM 34.1968 123.5725 215° Southwest  Level Estimated
11:59PM 34.1279 123.5150 215° Southwest  Level Estimated
12:00AM 34.0590 123.4576 215° Southwest  Level Estimated
12:01AM 33.9901 123.4003 215° Southwest  Level Estimated
12:02AM 33.9211 123.3430 215° Southwest  Level Estimated
12:03AM 33.8521 123.2859 215° Southwest  Level Estimated
12:04AM 33.7831 123.2289 214° Southwest  Level Estimated
12:05AM 33.7141 123.1719 214° Southwest  Level Estimated
12:06AM 33.6450 123.1151 214° Southwest  Level Estimated
12:07AM 33.5760 123.0583 214° Southwest  Level Estimated
12:08AM 33.5068 123.0016 214° Southwest  Level Estimated
12:09AM 33.4377 122.9450 214° Southwest  Level Estimated
12:10AM 33.3685 122.8885 214° Southwest  Level Estimated
12:11AM 33.2994 122.8321 214° Southwest  Level Estimated
12:12AM 33.2301 122.7758 214° Southwest  Level Estimated
12:13AM 33.1609 122.7196 214° Southwest  Level Estimated
12:14AM 33.0916 122.6634 214° Southwest  Level Estimated
12:15AM 33.0223 122.6074 214° Southwest  Level Estimated
12:16AM 32.9530 122.5514 214° Southwest  Level Estimated
12:17AM 32.8837 122.4955 214° Southwest  Level Estimated
12:18AM 32.8143 122.4397 214° Southwest  Level Estimated
12:19AM 32.7449 122.3840 214° Southwest  Level Estimated
12:20AM 32.6755 122.3284 214° Southwest  Level Estimated
12:21AM 32.6060 122.2729 214° Southwest  Level Estimated
12:22AM 32.5366 122.2174 214° Southwest  Level Estimated
12:23AM 32.4671 122.1620 214° Southwest  Level Estimated
12:24AM 32.3976 122.1068 214° Southwest  Level Estimated
12:25AM 32.3280 122.0516 214° Southwest  Level Estimated
12:26AM 32.2585 121.9965 214° Southwest  Level Estimated
12:27AM 32.1889 121.9415 214° Southwest  Level Estimated
12:28AM 32.1193 121.8865 214° Southwest  Level Estimated
12:29AM 32.0497 121.8317 214° Southwest  Level Estimated
12:30AM 31.9800 121.7769 214° Southwest  Level Estimated
12:31AM 31.9103 121.7222 214° Southwest  Level Estimated
12:32AM 31.8406 121.6676 214° Southwest  Level Estimated
12:33AM 31.7709 121.6131 214° Southwest  Level Estimated
12:34AM 31.7012 121.5586 214° Southwest  Level Estimated
12:35AM 31.6314 121.5043 214° Southwest  Level Estimated
12:36AM 31.5616 121.4500 214° Southwest  Level Estimated
12:37AM 31.4918 121.3958 214° Southwest  Level Estimated
12:38AM 31.4219 121.3417 213° Southwest  Level Estimated
12:39AM 31.3521 121.2877 213° Southwest  Level Estimated
12:40AM 31.2822 121.2337 213° Southwest  Level Estimated
12:41AM 31.2123 121.1799 213° Southwest  Level Estimated
12:42AM 31.1423 121.1261 213° Southwest  Level Estimated
12:43AM 31.0724 121.0724 213° Southwest  Level Estimated
12:44AM 31.0024 121.0187 213° Southwest  Level Estimated
12:45AM 30.9324 120.9652 213° Southwest  Level Estimated
12:46AM 30.8624 120.9117 213° Southwest  Level Estimated
12:46AM 30.6821 121.9729 213° Southwest 303 349 18,400  Level FlightAware ADS-B (ZSSS / SHA)
12:47AM 30.7924 120.8583 213° Southwest  Level Estimated
12:49AM 30.6285 121.7868 252° West  Level Estimated
12:50AM 30.6018 121.6946 251° West  Level Estimated
12:51AM 30.5751 121.6025 251° West  Level Estimated
12:52AM 30.5482 121.5104 251° West  Level Estimated
12:53AM 30.5214 121.4183 251° West  Level Estimated
12:54AM 30.4944 121.3263 251° West  Level Estimated
12:55AM 30.4674 121.2344 251° West  Level Estimated
12:56AM 30.4404 121.1425 251° West  Level Estimated
12:57AM 30.4132 121.0506 251° West  Level Estimated
12:58AM 30.3860 120.9588 251° West  Level Estimated
12:59AM 30.3588 120.8671 251° West  Level Estimated
01:00AM 30.3315 120.7754 251° West  Level Estimated
01:01AM 30.3041 120.6837 251° West  Level Estimated
01:02AM 30.2766 120.5921 251° West  Level Estimated
01:03AM 30.2491 120.5006 251° West  Level Estimated
01:04AM 30.2283 120.4317 251° West  Level Estimated
01:05AM 30.2283 120.4317 319° Northwest  Level Estimated
01:06AM 30.2283 120.4317 319° Northwest  Level Estimated
01:07AM 30.2283 120.4317 319° Northwest  Level Estimated
01:08AM 30.2283 120.4317 319° Northwest  Level Estimated
01:09AM 30.2283 120.4317 319° Northwest  Level Estimated
01:10AM 30.2283 120.4317 319° Northwest  Level Estimated
01:11AM 30.2283 120.4317 319° Northwest  Level Estimated

Login

Don't have an account? Register now (free) for customized features, flight alerts, and more!